createdAt,value
2018-11-28T00:00:27.389Z,100.00
2018-11-28T00:02:54.684Z,100.00
2018-11-28T00:05:21.910Z,100.00
2018-11-28T00:07:49.110Z,100.00
2018-11-28T00:10:16.266Z,100.00
2018-11-28T00:12:44.139Z,100.00
2018-11-28T00:15:13.796Z,100.00
2018-11-28T00:17:40.987Z,100.00
2018-11-28T00:20:15.803Z,100.00
2018-11-28T00:22:43.305Z,100.00
2018-11-28T00:25:11.577Z,100.00
2018-11-28T00:27:39.717Z,100.00
2018-11-28T00:30:16.040Z,100.00
2018-11-28T00:32:43.289Z,100.00
2018-11-28T00:35:11.950Z,100.00
2018-11-28T00:37:39.231Z,100.00
2018-11-28T00:40:08.051Z,100.00
2018-11-28T00:42:35.190Z,100.00
2018-11-28T00:45:02.345Z,100.00
2018-11-28T00:47:29.568Z,100.00
2018-11-28T00:49:56.763Z,100.00
2018-11-28T00:52:23.911Z,100.00
2018-11-28T00:54:51.142Z,100.00
2018-11-28T00:57:18.295Z,100.00
2018-11-28T00:59:45.572Z,100.00
2018-11-28T01:02:12.774Z,100.00
2018-11-28T01:04:39.921Z,99.77
2018-11-28T01:07:07.047Z,99.71
2018-11-28T01:09:34.214Z,99.82
2018-11-28T01:12:01.421Z,100.00
2018-11-28T01:14:28.567Z,100.00
2018-11-28T01:16:55.782Z,100.00
2018-11-28T01:19:22.912Z,100.00
2018-11-28T01:21:50.174Z,100.00
2018-11-28T01:24:17.400Z,100.00
2018-11-28T01:26:44.798Z,99.74
2018-11-28T01:29:11.953Z,99.65
2018-11-28T01:31:39.144Z,99.89
2018-11-28T01:34:06.451Z,100.00
2018-11-28T01:36:33.655Z,100.00
2018-11-28T01:39:00.852Z,99.37
2018-11-28T01:41:27.997Z,99.81
2018-11-28T01:43:55.230Z,99.53
2018-11-28T01:46:22.436Z,99.84
2018-11-28T01:48:49.583Z,99.98
2018-11-28T01:51:16.743Z,100.00
2018-11-28T01:53:43.954Z,99.58
2018-11-28T01:56:11.130Z,98.99
2018-11-28T01:58:38.295Z,99.23
2018-11-28T02:01:05.491Z,99.46
2018-11-28T02:03:32.643Z,99.87
2018-11-28T02:05:59.946Z,100.00
2018-11-28T02:08:27.173Z,99.55
2018-11-28T02:10:54.332Z,99.59
2018-11-28T02:13:21.471Z,99.29
2018-11-28T02:15:48.691Z,99.17
2018-11-28T02:18:15.899Z,99.36
2018-11-28T02:20:43.047Z,100.00
2018-11-28T02:23:10.255Z,99.74
2018-11-28T02:25:37.499Z,100.00
2018-11-28T02:28:04.919Z,100.00
2018-11-28T02:30:32.107Z,99.72
2018-11-28T02:32:59.255Z,99.02
2018-11-28T02:35:26.424Z,99.65
2018-11-28T02:37:53.613Z,99.28
2018-11-28T02:40:20.822Z,99.01
2018-11-28T02:42:48.948Z,99.08
2018-11-28T02:45:20.044Z,98.92
2018-11-28T02:47:47.170Z,99.29
2018-11-28T02:50:14.386Z,99.77
2018-11-28T02:52:41.610Z,99.31
2018-11-28T02:55:10.127Z,98.79
2018-11-28T02:57:37.335Z,99.13
2018-11-28T03:00:11.199Z,99.32
2018-11-28T03:02:38.364Z,98.83
2018-11-28T03:05:07.006Z,98.90
2018-11-28T03:07:34.202Z,99.28
2018-11-28T03:10:01.386Z,98.90
2018-11-28T03:12:28.565Z,98.81
2018-11-28T03:14:55.763Z,98.82
2018-11-28T03:17:24.873Z,98.77
2018-11-28T03:19:52.016Z,98.60
2018-11-28T03:22:19.347Z,99.18
2018-11-28T03:24:46.507Z,98.90
2018-11-28T03:27:13.647Z,99.22
2018-11-28T03:29:40.835Z,99.36
2018-11-28T03:32:07.985Z,97.36
2018-11-28T03:34:35.188Z,98.80
2018-11-28T03:37:02.417Z,99.31
2018-11-28T03:39:29.627Z,100.00
2018-11-28T03:41:56.772Z,99.86
2018-11-28T03:44:24.071Z,97.66
2018-11-28T03:46:51.216Z,98.20
2018-11-28T03:49:18.379Z,99.66
2018-11-28T03:51:45.688Z,99.59
2018-11-28T03:54:12.849Z,99.82
2018-11-28T03:56:39.986Z,100.00
2018-11-28T03:59:07.188Z,99.98
2018-11-28T04:01:34.356Z,99.88
2018-11-28T04:04:01.563Z,99.75
2018-11-28T04:06:28.784Z,99.12
2018-11-28T04:08:55.919Z,99.37
2018-11-28T04:11:23.063Z,98.23
2018-11-28T04:13:50.251Z,99.09
2018-11-28T04:16:17.448Z,99.26
2018-11-28T04:18:44.606Z,99.49
2018-11-28T04:21:11.810Z,97.67
2018-11-28T04:23:39.031Z,98.08
2018-11-28T04:26:06.189Z,97.66
2018-11-28T04:28:33.399Z,96.51
2018-11-28T04:31:00.556Z,95.54
2018-11-28T04:33:27.703Z,95.69
2018-11-28T04:35:54.999Z,93.94
2018-11-28T04:38:22.131Z,93.89
2018-11-28T04:40:49.266Z,95.22
2018-11-28T04:43:16.495Z,94.79
2018-11-28T04:45:43.643Z,94.57
2018-11-28T04:48:10.868Z,95.26
2018-11-28T04:50:38.071Z,96.21
2018-11-28T04:53:05.918Z,97.14
2018-11-28T04:55:33.078Z,97.72
2018-11-28T04:58:00.254Z,98.25
2018-11-28T05:00:27.515Z,97.99
2018-11-28T05:02:56.281Z,98.50
2018-11-28T05:05:28.371Z,100.00
2018-11-28T05:07:55.576Z,100.00
2018-11-28T05:10:27.819Z,100.00
2018-11-28T05:12:55.700Z,100.00
2018-11-28T05:15:24.855Z,100.00
2018-11-28T05:17:53.510Z,100.00
2018-11-28T05:20:21.110Z,100.00
2018-11-28T05:22:48.263Z,99.71
2018-11-28T05:25:16.455Z,100.00
2018-11-28T05:27:43.635Z,100.00
2018-11-28T05:30:12.678Z,100.00
2018-11-28T05:32:39.910Z,99.78
2018-11-28T05:35:08.459Z,99.36
2018-11-28T05:37:35.610Z,99.76
2018-11-28T05:40:02.849Z,99.20
2018-11-28T05:42:29.983Z,98.85
2018-11-28T05:44:57.136Z,99.26
2018-11-28T05:47:24.361Z,99.55
2018-11-28T05:49:51.506Z,99.18
2018-11-28T05:52:18.670Z,99.86
2018-11-28T05:54:45.895Z,100.00
2018-11-28T05:57:13.067Z,100.00
2018-11-28T05:59:40.298Z,100.00
2018-11-28T06:02:07.576Z,100.00
2018-11-28T06:04:34.778Z,100.00
2018-11-28T06:07:01.937Z,100.00
2018-11-28T06:09:29.169Z,100.00
2018-11-28T06:11:56.427Z,100.00
2018-11-28T06:14:23.604Z,100.00
2018-11-28T06:16:50.946Z,100.00
2018-11-28T06:19:18.131Z,100.00
2018-11-28T06:21:45.347Z,100.00
2018-11-28T06:24:12.623Z,100.00
2018-11-28T06:26:39.806Z,100.00
2018-11-28T06:29:07.242Z,100.00
2018-11-28T06:31:34.513Z,100.00
2018-11-28T06:34:01.696Z,100.00
2018-11-28T06:36:28.983Z,100.00
2018-11-28T06:38:56.287Z,100.00
2018-11-28T06:41:23.451Z,100.00
2018-11-28T06:43:50.614Z,100.00
2018-11-28T06:46:17.889Z,100.00
2018-11-28T06:48:45.067Z,100.00
2018-11-28T06:51:12.259Z,100.00
2018-11-28T06:53:39.493Z,100.00
2018-11-28T06:56:07.543Z,100.00
2018-11-28T06:58:34.773Z,100.00
2018-11-28T07:01:02.043Z,100.00
2018-11-28T07:03:29.209Z,100.00
2018-11-28T07:05:56.390Z,100.00
2018-11-28T07:08:23.601Z,100.00
2018-11-28T07:10:50.823Z,100.00
2018-11-28T07:13:18.000Z,100.00
2018-11-28T07:15:45.226Z,100.00
2018-11-28T07:18:23.830Z,100.00
2018-11-28T07:20:51.143Z,100.00
2018-11-28T07:23:18.348Z,100.00
2018-11-28T07:25:45.533Z,100.00
2018-11-28T07:28:12.768Z,100.00
2018-11-28T07:30:40.008Z,100.00
2018-11-28T07:33:07.508Z,100.00
2018-11-28T07:35:34.727Z,100.00
2018-11-28T07:38:01.898Z,100.00
2018-11-28T07:40:29.059Z,100.00
2018-11-28T07:43:12.481Z,100.00
2018-11-28T07:45:41.138Z,100.00
2018-11-28T07:48:08.301Z,100.00
2018-11-28T07:50:35.539Z,100.00
2018-11-28T07:53:02.754Z,100.00
2018-11-28T07:55:29.956Z,100.00
2018-11-28T07:57:57.179Z,100.00
2018-11-28T08:00:24.381Z,100.00
2018-11-28T08:02:51.545Z,100.00
2018-11-28T08:05:18.775Z,100.00
2018-11-28T08:07:45.980Z,100.00
2018-11-28T08:10:25.059Z,100.00
2018-11-28T08:12:53.491Z,100.00
2018-11-28T08:15:20.695Z,100.00
2018-11-28T08:17:47.982Z,99.78
2018-11-28T08:20:15.283Z,98.66
2018-11-28T08:22:42.504Z,98.42
2018-11-28T08:25:12.733Z,98.61
2018-11-28T08:27:39.121Z,97.83
2018-11-28T08:30:12.216Z,97.23
2018-11-28T08:32:39.386Z,96.63
2018-11-28T08:35:06.855Z,96.00
2018-11-28T08:37:34.107Z,96.52
2018-11-28T08:40:01.359Z,95.91
2018-11-28T08:42:28.568Z,95.48
2018-11-28T08:44:55.789Z,94.71
2018-11-28T08:47:22.973Z,94.31
2018-11-28T08:49:50.187Z,94.51
2018-11-28T08:52:17.460Z,93.74
2018-11-28T08:54:44.661Z,93.62
2018-11-28T08:57:11.908Z,92.70
2018-11-28T08:59:39.151Z,92.26
2018-11-28T09:02:06.435Z,92.12
2018-11-28T09:04:33.779Z,91.06
2018-11-28T09:07:01.070Z,91.30
2018-11-28T09:09:28.236Z,90.52
2018-11-28T09:11:55.403Z,89.61
2018-11-28T09:14:22.631Z,90.26
2018-11-28T09:16:49.862Z,89.57
2018-11-28T09:19:17.018Z,88.50
2018-11-28T09:21:44.275Z,87.69
2018-11-28T09:24:11.433Z,88.28
2018-11-28T09:26:38.643Z,87.42
2018-11-28T09:29:05.970Z,85.68
2018-11-28T09:31:33.147Z,83.28
2018-11-28T09:34:00.519Z,83.61
2018-11-28T09:36:27.763Z,83.06
2018-11-28T09:38:54.943Z,83.35
2018-11-28T09:41:22.166Z,83.62
2018-11-28T09:43:49.404Z,81.53
2018-11-28T09:46:16.572Z,81.44
2018-11-28T09:48:43.764Z,80.86
2018-11-28T09:51:10.989Z,80.70
2018-11-28T09:53:38.246Z,78.51
2018-11-28T09:56:05.455Z,78.31
2018-11-28T09:58:32.740Z,78.12
2018-11-28T10:00:59.920Z,77.69
2018-11-28T10:03:27.097Z,77.41
2018-11-28T10:05:54.459Z,75.19
2018-11-28T10:08:21.631Z,75.54
2018-11-28T10:10:48.824Z,74.22
2018-11-28T10:13:16.036Z,73.98
2018-11-28T10:15:43.211Z,73.81
2018-11-28T10:18:10.458Z,71.31
2018-11-28T10:20:37.699Z,71.94
2018-11-28T10:23:05.346Z,72.26
2018-11-28T10:25:32.535Z,72.48
2018-11-28T10:28:02.255Z,71.10
2018-11-28T10:30:32.443Z,73.17
2018-11-28T10:33:01.720Z,71.52
2018-11-28T10:35:29.086Z,70.65
2018-11-28T10:37:56.294Z,68.84
2018-11-28T10:40:24.448Z,68.16
2018-11-28T10:42:54.004Z,66.45
2018-11-28T10:45:22.443Z,65.64
2018-11-28T10:47:49.676Z,65.76
2018-11-28T10:50:16.975Z,65.12
2018-11-28T10:52:44.248Z,63.66
2018-11-28T10:55:16.723Z,64.00
2018-11-28T10:57:44.088Z,63.78
2018-11-28T11:00:19.328Z,64.06
2018-11-28T11:02:53.219Z,64.24
2018-11-28T11:05:26.314Z,64.97
2018-11-28T11:07:59.266Z,64.72
2018-11-28T11:10:32.247Z,63.50
2018-11-28T11:13:05.993Z,63.73
2018-11-28T11:15:33.883Z,63.94
2018-11-28T11:18:02.254Z,64.59
2018-11-28T11:20:28.623Z,63.39
2018-11-28T11:22:55.891Z,64.04
2018-11-28T11:25:23.227Z,63.52
2018-11-28T11:27:50.398Z,64.15
2018-11-28T11:30:17.620Z,63.08
2018-11-28T11:32:44.891Z,64.13
2018-11-28T11:35:12.216Z,63.80
2018-11-28T11:37:39.434Z,63.68
2018-11-28T11:40:11.148Z,63.34
2018-11-28T11:42:38.511Z,62.35
2018-11-28T11:45:08.253Z,63.00
2018-11-28T11:47:35.459Z,62.20
2018-11-28T11:50:02.794Z,61.98
2018-11-28T11:52:30.089Z,62.39
2018-11-28T11:54:57.335Z,62.24
2018-11-28T11:57:24.823Z,62.43
2018-11-28T11:59:52.013Z,61.44
2018-11-28T12:02:19.258Z,61.67
2018-11-28T12:04:46.639Z,61.51
2018-11-28T12:07:13.905Z,61.34
2018-11-28T12:09:41.228Z,59.73
2018-11-28T12:12:08.618Z,57.41
2018-11-28T12:14:35.896Z,58.49
2018-11-28T12:17:03.144Z,57.75
2018-11-28T12:19:30.519Z,56.56
2018-11-28T12:21:57.705Z,58.54
2018-11-28T12:24:24.904Z,57.94
2018-11-28T12:26:52.179Z,59.27
2018-11-28T12:29:19.372Z,60.05
2018-11-28T12:31:46.699Z,59.83
2018-11-28T12:34:13.980Z,59.66
2018-11-28T12:36:41.173Z,60.19
2018-11-28T12:39:09.694Z,59.82
2018-11-28T12:41:36.922Z,60.55
2018-11-28T12:44:04.382Z,60.16
2018-11-28T12:46:31.583Z,59.25
2018-11-28T12:48:58.904Z,59.68
2018-11-28T12:51:26.131Z,59.35
2018-11-28T12:53:53.430Z,59.30
2018-11-28T12:56:20.884Z,59.57
2018-11-28T12:58:48.140Z,60.14
2018-11-28T13:01:15.320Z,60.30
2018-11-28T13:03:42.570Z,60.29
2018-11-28T13:06:09.760Z,60.01
2018-11-28T13:08:38.323Z,60.11
2018-11-28T13:11:06.735Z,59.46
2018-11-28T13:13:33.974Z,59.84
2018-11-28T13:16:01.264Z,59.04
2018-11-28T13:18:28.575Z,59.24
2018-11-28T13:20:55.814Z,59.64
2018-11-28T13:23:22.990Z,59.46
2018-11-28T13:25:50.581Z,59.06
2018-11-28T13:28:17.794Z,58.89
2018-11-28T13:30:45.035Z,59.14
2018-11-28T13:33:12.276Z,59.76
2018-11-28T13:35:39.485Z,60.28
2018-11-28T13:38:09.561Z,59.60
2018-11-28T13:40:36.815Z,60.03
2018-11-28T13:43:04.195Z,60.31
2018-11-28T13:45:32.757Z,60.16
2018-11-28T13:48:00.012Z,60.18
2018-11-28T13:50:27.252Z,60.43
2018-11-28T13:52:55.089Z,59.17
2018-11-28T13:55:39.729Z,60.11
2018-11-28T13:57:57.908Z,60.49
2018-11-28T14:00:25.091Z,60.03
2018-11-28T14:02:52.344Z,60.66
2018-11-28T14:05:19.581Z,60.42
2018-11-28T14:07:46.786Z,61.01
2018-11-28T14:10:14.662Z,61.18
2018-11-28T14:12:42.103Z,61.70
2018-11-28T14:15:14.451Z,61.13
2018-11-28T14:17:42.807Z,61.22
2018-11-28T14:20:10.704Z,61.04
2018-11-28T14:22:38.592Z,61.50
2018-11-28T14:25:07.579Z,62.08
2018-11-28T14:27:34.784Z,62.60
2018-11-28T14:30:02.329Z,64.43
2018-11-28T14:32:29.679Z,64.52
2018-11-28T14:34:57.020Z,64.84
2018-11-28T14:37:24.387Z,64.98
2018-11-28T14:39:51.620Z,65.35
2018-11-28T14:42:18.906Z,65.68
2018-11-28T14:44:46.268Z,66.50
2018-11-28T14:47:13.442Z,65.90
2018-11-28T14:49:40.665Z,66.92
2018-11-28T14:52:07.934Z,66.79
2018-11-28T14:54:35.087Z,66.86
2018-11-28T14:57:02.689Z,67.39
2018-11-28T14:59:29.992Z,67.88
2018-11-28T15:01:57.188Z,67.86
2018-11-28T15:04:24.367Z,68.60
2018-11-28T15:06:56.582Z,69.45
2018-11-28T15:09:31.070Z,70.01
2018-11-28T15:11:58.528Z,70.79
2018-11-28T15:14:25.793Z,71.35
2018-11-28T15:16:53.023Z,71.88
2018-11-28T15:19:20.411Z,71.73
2018-11-28T15:21:47.741Z,71.99
2018-11-28T15:24:14.903Z,72.72
2018-11-28T15:26:42.234Z,73.00
2018-11-28T15:29:09.436Z,72.94
2018-11-28T15:31:36.604Z,73.32
2018-11-28T15:34:04.043Z,74.22
2018-11-28T15:36:31.323Z,74.10
2018-11-28T15:38:58.539Z,74.08
2018-11-28T15:41:25.763Z,74.16
2018-11-28T15:43:53.003Z,74.10
2018-11-28T15:46:20.259Z,74.43
2018-11-28T15:48:47.492Z,74.43
2018-11-28T15:51:14.702Z,74.71
2018-11-28T15:53:41.928Z,74.61
2018-11-28T15:56:09.231Z,74.76
2018-11-28T15:58:37.052Z,75.07
2018-11-28T16:01:04.571Z,75.19
2018-11-28T16:03:31.866Z,75.93
2018-11-28T16:05:59.075Z,75.30
2018-11-28T16:08:26.320Z,75.55
2018-11-28T16:10:53.751Z,75.41
2018-11-28T16:13:21.004Z,75.96
2018-11-28T16:15:49.738Z,75.66
2018-11-28T16:18:17.065Z,76.36
2018-11-28T16:20:44.455Z,76.49
2018-11-28T16:23:11.847Z,76.25
2018-11-28T16:25:39.473Z,76.32
2018-11-28T16:28:07.412Z,76.87
2018-11-28T16:30:34.683Z,76.49
2018-11-28T16:33:02.155Z,76.76
2018-11-28T16:35:29.391Z,76.77
2018-11-28T16:37:56.607Z,76.47
2018-11-28T16:40:23.858Z,76.75
2018-11-28T16:42:51.150Z,77.08
2018-11-28T16:45:19.493Z,77.01
2018-11-28T16:47:47.087Z,76.87
2018-11-28T16:50:15.051Z,77.23
2018-11-28T16:52:42.504Z,76.94
2018-11-28T16:55:11.225Z,77.67
2018-11-28T16:57:38.389Z,78.04
2018-11-28T17:00:08.769Z,78.57
2018-11-28T17:02:36.026Z,78.31
2018-11-28T17:05:04.262Z,78.15
2018-11-28T17:07:31.534Z,78.34
2018-11-28T17:09:58.828Z,78.53
2018-11-28T17:12:26.043Z,78.79
2018-11-28T17:14:53.315Z,78.84
2018-11-28T17:17:20.575Z,79.06
2018-11-28T17:19:47.736Z,79.24
2018-11-28T17:22:15.003Z,79.32
2018-11-28T17:24:42.299Z,79.69
2018-11-28T17:27:09.615Z,79.91
2018-11-28T17:29:36.779Z,79.71
2018-11-28T17:32:04.411Z,80.03
2018-11-28T17:34:31.603Z,79.74
2018-11-28T17:36:58.796Z,79.34
2018-11-28T17:39:26.046Z,79.20
2018-11-28T17:41:53.232Z,79.13
2018-11-28T17:44:20.409Z,79.05
2018-11-28T17:46:47.611Z,79.13
2018-11-28T17:49:14.910Z,78.96
2018-11-28T17:51:42.135Z,78.94
2018-11-28T17:54:09.370Z,79.29
2018-11-28T17:56:36.520Z,79.27
2018-11-28T17:59:03.832Z,79.70
2018-11-28T18:01:31.092Z,79.72
2018-11-28T18:03:58.259Z,79.72
2018-11-28T18:06:25.448Z,79.70
2018-11-28T18:08:52.922Z,79.94
2018-11-28T18:11:20.132Z,79.69
2018-11-28T18:13:47.324Z,79.92
2018-11-28T18:16:14.559Z,79.60
2018-11-28T18:18:41.747Z,79.84
2018-11-28T18:21:08.912Z,80.16
2018-11-28T18:23:36.143Z,80.24
2018-11-28T18:26:06.131Z,80.78
2018-11-28T18:28:33.344Z,80.50
2018-11-28T18:31:00.591Z,80.66
2018-11-28T18:33:27.759Z,81.13
2018-11-28T18:35:54.968Z,81.13
2018-11-28T18:38:23.068Z,81.50
2018-11-28T18:40:50.286Z,81.44
2018-11-28T18:43:17.511Z,81.75
2018-11-28T18:45:47.379Z,81.99
2018-11-28T18:48:15.351Z,82.31
2018-11-28T18:50:42.533Z,82.62
2018-11-28T18:53:09.791Z,82.84
2018-11-28T18:55:36.984Z,82.74
2018-11-28T18:58:04.201Z,82.84
2018-11-28T19:00:32.491Z,82.89
2018-11-28T19:02:59.671Z,83.12
2018-11-28T19:05:26.874Z,83.30
2018-11-28T19:07:54.112Z,83.44
2018-11-28T19:10:26.286Z,83.70
2018-11-28T19:12:50.091Z,83.90
2018-11-28T19:15:24.073Z,84.25
2018-11-28T19:17:51.418Z,84.70
2018-11-28T19:20:20.713Z,85.17
2018-11-28T19:22:48.284Z,85.36
2018-11-28T19:25:16.452Z,85.38
2018-11-28T19:27:44.677Z,85.56
2018-11-28T19:30:15.409Z,86.21
2018-11-28T19:32:42.720Z,86.57
2018-11-28T19:35:10.479Z,86.59
2018-11-28T19:37:38.063Z,87.11
2018-11-28T19:40:11.124Z,87.27
2018-11-28T19:42:38.378Z,87.35
2018-11-28T19:45:06.064Z,87.15
2018-11-28T19:47:33.231Z,87.80
2018-11-28T19:50:00.447Z,88.33
2018-11-28T19:52:27.612Z,88.59
2018-11-28T19:54:54.892Z,88.61
2018-11-28T19:57:22.291Z,88.71
2018-11-28T19:59:49.536Z,89.35
2018-11-28T20:02:16.868Z,89.52
2018-11-28T20:04:44.145Z,89.41
2018-11-28T20:07:11.332Z,89.65
2018-11-28T20:09:38.616Z,89.78
2018-11-28T20:12:06.088Z,90.14
2018-11-28T20:14:33.290Z,90.04
2018-11-28T20:17:00.479Z,90.18
2018-11-28T20:19:27.753Z,90.40
2018-11-28T20:21:54.934Z,90.39
2018-11-28T20:24:22.109Z,90.50
2018-11-28T20:26:49.460Z,90.90
2018-11-28T20:29:16.705Z,91.21
2018-11-28T20:31:43.948Z,91.43
2018-11-28T20:34:11.324Z,91.86
2018-11-28T20:36:38.491Z,92.09
2018-11-28T20:39:07.844Z,92.32
2018-11-28T20:41:35.079Z,91.94
2018-11-28T20:44:02.285Z,92.03
2018-11-28T20:46:29.475Z,91.73
2018-11-28T20:48:56.708Z,92.41
2018-11-28T20:51:23.879Z,92.46
2018-11-28T20:53:51.113Z,92.60
2018-11-28T20:56:18.339Z,92.62
2018-11-28T20:58:45.609Z,92.82
2018-11-28T21:01:12.831Z,92.59
2018-11-28T21:03:40.071Z,92.78
2018-11-28T21:06:07.239Z,92.91
2018-11-28T21:08:34.403Z,93.21
2018-11-28T21:11:01.647Z,92.58
2018-11-28T21:13:28.927Z,93.44
2018-11-28T21:15:56.100Z,94.08
2018-11-28T21:18:23.332Z,94.09
2018-11-28T21:20:50.510Z,94.10
2018-11-28T21:23:18.661Z,94.24
2018-11-28T21:25:46.475Z,93.68
2018-11-28T21:28:13.631Z,93.71
2018-11-28T21:30:40.827Z,93.47
2018-11-28T21:33:08.928Z,93.74
2018-11-28T21:35:38.586Z,93.97
2018-11-28T21:38:06.596Z,94.48
2018-11-28T21:40:33.840Z,94.03
2018-11-28T21:43:01.063Z,93.89
2018-11-28T21:45:28.236Z,93.79
2018-11-28T21:47:55.499Z,94.52
2018-11-28T21:50:22.684Z,93.90
2018-11-28T21:52:49.859Z,93.88
2018-11-28T21:55:20.049Z,93.82
2018-11-28T21:57:47.251Z,93.83
2018-11-28T22:00:15.468Z,93.30
2018-11-28T22:02:42.747Z,93.28
2018-11-28T22:05:10.931Z,93.25
2018-11-28T22:07:38.101Z,93.69
2018-11-28T22:10:15.615Z,93.43
2018-11-28T22:12:42.842Z,92.97
2018-11-28T22:15:11.010Z,93.09
2018-11-28T22:17:39.240Z,92.62
2018-11-28T22:20:08.467Z,92.40
2018-11-28T22:22:35.635Z,92.65
2018-11-28T22:25:02.867Z,92.24
2018-11-28T22:27:30.044Z,92.25
2018-11-28T22:29:57.222Z,92.01
2018-11-28T22:32:24.450Z,91.79
2018-11-28T22:34:51.631Z,91.74
2018-11-28T22:37:18.852Z,92.02
2018-11-28T22:39:46.148Z,91.95
2018-11-28T22:42:13.315Z,91.77
2018-11-28T22:44:40.460Z,91.57
2018-11-28T22:47:07.815Z,91.47
2018-11-28T22:49:34.970Z,91.94
2018-11-28T22:52:02.207Z,92.05
2018-11-28T22:54:30.092Z,92.46
2018-11-28T22:56:57.262Z,91.50
2018-11-28T22:59:24.449Z,91.78
2018-11-28T23:03:03.725Z,91.61
2018-11-28T23:05:33.991Z,91.44
2018-11-28T23:08:02.374Z,91.37
2018-11-28T23:10:30.067Z,91.67
2018-11-28T23:12:58.131Z,91.68
2018-11-28T23:15:25.367Z,92.11
2018-11-28T23:17:55.172Z,92.63
2018-11-28T23:20:19.978Z,92.37
2018-11-28T23:22:47.851Z,92.25
2018-11-28T23:25:15.063Z,92.52
2018-11-28T23:27:42.243Z,92.22
2018-11-28T23:30:19.339Z,92.31
2018-11-28T23:32:47.368Z,92.73
2018-11-28T23:35:15.607Z,92.92
2018-11-28T23:37:43.998Z,92.99
2018-11-28T23:40:16.889Z,93.04
2018-11-28T23:42:44.269Z,93.15
2018-11-28T23:45:12.376Z,93.07
2018-11-28T23:47:39.558Z,93.25
2018-11-28T23:50:10.622Z,93.23
2018-11-28T23:52:37.798Z,93.12
2018-11-28T23:55:06.817Z,92.69
2018-11-28T23:57:34.523Z,93.34
